Time;durP1;ratioP1;P1;durP2;ratioP2;P2;SDS_P1;SDS_P2;PMS_P1;PMS_P2;Temp;Humidity;BMP_temperature;BMP_pressure;BME280_temperature;BME280_humidity;BME280_pressure;Samples;Min_cycle;Max_cycle;Signal;HPM_P1;HPM_P2
2023/03/13 00:02:02;;;;;;;23.67;4.82;;;8.90;99.90;;;;;;5051838;28;20111;-66
2023/03/13 00:04:28;;;;;;;24.08;5.25;;;8.90;99.90;;;;;;5052000;28;20076;-66
2023/03/13 00:06:53;;;;;;;23.83;5.00;;;8.80;99.90;;;;;;5034460;28;20036;-66
2023/03/13 00:09:21;;;;;;;16.15;4.65;;;8.80;99.90;;;;;;5051484;28;20080;-66
2023/03/13 00:11:47;;;;;;;20.73;5.45;;;8.80;99.90;;;;;;5052859;28;20036;-66
2023/03/13 00:14:13;;;;;;;21.45;5.45;;;8.80;99.90;;;;;;5052201;28;20045;-66
2023/03/13 00:16:38;;;;;;;28.70;6.30;;;8.80;99.90;;;;;;5051132;28;20044;-66
2023/03/13 00:19:06;;;;;;;32.88;6.68;;;8.80;99.90;;;;;;5051304;28;20099;-66
2023/03/13 00:21:32;;;;;;;17.58;5.07;;;8.80;99.90;;;;;;5034284;28;20071;-66
2023/03/13 00:23:59;;;;;;;24.30;5.53;;;8.80;99.90;;;;;;5051224;28;20060;-66
2023/03/13 00:26:27;;;;;;;23.92;4.57;;;8.80;99.90;;;;;;5052359;28;20053;-66
2023/03/13 00:28:53;;;;;;;15.40;4.88;;;8.80;99.90;;;;;;5050540;28;20040;-66
2023/03/13 00:31:21;;;;;;;15.57;4.90;;;8.80;99.90;;;;;;5051113;28;20124;-66
2023/03/13 00:33:51;;;;;;;20.13;4.63;;;8.80;99.90;;;;;;5050451;28;20040;-65
2023/03/13 00:36:24;;;;;;;27.73;5.00;;;8.80;99.90;;;;;;5051172;28;20037;-66
2023/03/13 00:38:52;;;;;;;30.35;7.05;;;8.80;99.90;;;;;;5052223;28;20051;-66
2023/03/13 00:41:20;;;;;;;12.60;3.78;;;8.80;99.90;;;;;;5049835;28;20044;-66
2023/03/13 00:43:47;;;;;;;16.83;5.13;;;8.80;99.90;;;;;;5051290;28;20072;-67
2023/03/13 00:46:16;;;;;;;25.35;5.20;;;8.80;99.90;;;;;;5052383;28;20043;-66
2023/03/13 00:48:42;;;;;;;27.42;6.60;;;8.70;99.90;;;;;;5050466;28;20045;-66
2023/03/13 00:51:08;;;;;;;20.70;4.93;;;8.80;99.90;;;;;;5050893;28;20422;-65
2023/03/13 00:53:35;;;;;;;20.88;5.47;;;8.80;99.90;;;;;;5050794;28;20508;-66
2023/03/13 00:56:02;;;;;;;20.17;5.18;;;8.70;99.90;;;;;;5050413;28;20041;-66
2023/03/13 00:58:31;;;;;;;26.35;5.88;;;8.80;99.90;;;;;;5050822;28;20159;-66
2023/03/13 01:01:04;;;;;;;25.98;5.82;;;8.80;99.90;;;;;;5050773;28;20037;-66
2023/03/13 01:03:30;;;;;;;13.30;3.65;;;8.80;99.90;;;;;;5050137;28;20110;-66
2023/03/13 01:06:01;;;;;;;22.52;5.78;;;8.80;99.90;;;;;;5050415;28;20037;-66
2023/03/13 01:08:28;;;;;;;21.95;5.57;;;8.80;99.90;;;;;;5051599;28;20049;-66
2023/03/13 01:10:58;;;;;;;19.73;4.68;;;8.80;99.90;;;;;;5050271;28;20087;-66
2023/03/13 01:13:24;;;;;;;30.05;6.15;;;8.90;99.90;;;;;;5050443;28;20041;-66
2023/03/13 01:15:50;;;;;;;25.15;5.25;;;8.90;99.90;;;;;;5050022;28;20076;-65
2023/03/13 01:18:18;;;;;;;17.33;3.90;;;8.90;99.90;;;;;;5051697;28;20052;-66
2023/03/13 01:20:43;;;;;;;27.75;6.70;;;8.90;99.90;;;;;;5051704;28;20086;-66
2023/03/13 01:23:09;;;;;;;23.90;5.25;;;8.90;99.90;;;;;;5051079;28;20874;-67
2023/03/13 01:25:37;;;;;;;12.75;3.50;;;9.00;99.90;;;;;;5051355;28;20057;-66
2023/03/13 01:28:03;;;;;;;21.67;4.63;;;9.00;99.90;;;;;;5051407;28;20045;-65
2023/03/13 01:30:29;;;;;;;12.63;3.75;;;9.00;99.90;;;;;;5049428;28;20139;-66
2023/03/13 01:32:54;;;;;;;17.20;3.83;;;9.00;99.90;;;;;;5051286;28;20053;-66
2023/03/13 01:35:20;;;;;;;23.67;5.82;;;9.00;99.90;;;;;;5051297;28;20075;-66
2023/03/13 01:37:48;;;;;;;19.58;4.57;;;9.00;99.90;;;;;;5049296;28;20044;-66
2023/03/13 01:40:14;;;;;;;13.32;3.65;;;9.00;99.90;;;;;;5050949;28;20033;-65
2023/03/13 01:42:58;;;;;;;24.70;5.85;;;9.00;99.90;;;;;;5066787;28;20375;-66
2023/03/13 01:45:58;;;;;;;23.75;5.25;;;8.90;99.90;;;;;;5050924;28;20127;-66
2023/03/13 01:48:53;;;;;;;18.90;5.13;;;8.90;99.90;;;;;;5051179;28;20481;-66
2023/03/13 01:51:25;;;;;;;13.38;3.78;;;8.90;99.90;;;;;;5065557;28;20040;-66
2023/03/13 01:53:58;;;;;;;19.17;5.18;;;8.90;99.90;;;;;;5048800;28;20076;-65
2023/03/13 01:56:35;;;;;;;13.80;3.75;;;8.90;99.90;;;;;;5050958;28;20037;-65
2023/03/13 01:59:01;;;;;;;21.38;4.35;;;8.80;99.90;;;;;;5049010;28;20079;-65
2023/03/13 02:01:28;;;;;;;19.65;6.50;;;8.80;99.90;;;;;;5050829;28;20037;-65
2023/03/13 02:03:56;;;;;;;14.23;3.92;;;8.80;99.90;;;;;;5049511;28;20489;-65
2023/03/13 02:06:24;;;;;;;24.80;4.63;;;8.90;99.90;;;;;;5049170;28;20049;-64
2023/03/13 02:08:56;;;;;;;12.23;3.42;;;8.90;99.90;;;;;;5049236;28;20053;-64
2023/03/13 02:11:36;;;;;;;16.50;5.05;;;8.90;99.90;;;;;;5049443;28;20037;-64
2023/03/13 02:14:03;;;;;;;18.67;6.13;;;8.90;99.90;;;;;;5048786;28;20044;-65
2023/03/13 02:16:31;;;;;;;22.80;5.40;;;8.90;99.90;;;;;;5050606;28;20112;-65
2023/03/13 02:18:57;;;;;;;20.10;5.45;;;8.90;99.90;;;;;;5048831;28;20084;-65
2023/03/13 02:21:35;;;;;;;14.90;4.90;;;9.00;99.90;;;;;;5049256;28;20123;-65
2023/03/13 02:24:01;;;;;;;17.88;4.85;;;8.90;99.90;;;;;;5050596;28;20033;-65
2023/03/13 02:26:26;;;;;;;13.07;4.78;;;9.00;99.90;;;;;;5048369;28;20156;-65
2023/03/13 02:28:52;;;;;;;15.90;4.18;;;9.00;99.90;;;;;;5049019;28;20409;-66
2023/03/13 02:31:18;;;;;;;15.30;4.32;;;9.00;99.90;;;;;;5049106;28;20056;-65
2023/03/13 02:33:44;;;;;;;14.07;3.92;;;9.00;99.90;;;;;;5048743;28;20043;-65
2023/03/13 02:36:12;;;;;;;13.07;5.78;;;9.00;99.90;;;;;;5049083;28;20389;-66
2023/03/13 02:38:44;;;;;;;13.05;4.32;;;9.00;99.90;;;;;;5049021;28;20044;-66
2023/03/13 02:41:12;;;;;;;7.70;2.35;;;9.00;99.90;;;;;;5049430;28;20051;-65
2023/03/13 02:43:38;;;;;;;8.60;3.53;;;9.00;99.90;;;;;;5048779;28;20053;-66
2023/03/13 02:46:09;;;;;;;15.30;4.20;;;9.10;99.90;;;;;;5049913;28;20095;-66
2023/03/13 02:48:39;;;;;;;13.35;4.80;;;9.10;99.90;;;;;;5048532;28;20041;-66
2023/03/13 02:51:11;;;;;;;10.73;4.22;;;9.10;99.90;;;;;;5049101;28;20059;-65
2023/03/13 02:53:37;;;;;;;6.75;2.90;;;9.10;99.90;;;;;;5050236;28;20395;-66
2023/03/13 02:56:03;;;;;;;10.43;3.40;;;9.10;99.90;;;;;;5048553;28;20079;-66
2023/03/13 02:58:37;;;;;;;9.63;4.05;;;9.20;99.90;;;;;;5050140;28;20041;-66
2023/03/13 03:01:06;;;;;;;9.02;3.65;;;9.20;99.90;;;;;;5048251;28;20047;-66
2023/03/13 03:03:34;;;;;;;14.40;3.88;;;9.20;99.90;;;;;;5049544;28;20100;-66
2023/03/13 03:06:00;;;;;;;7.38;2.83;;;9.20;99.90;;;;;;5069789;28;20583;-66
2023/03/13 03:08:26;;;;;;;13.35;4.38;;;9.30;99.90;;;;;;5052216;28;20045;-66
2023/03/13 03:10:52;;;;;;;11.05;4.63;;;9.40;99.90;;;;;;5052736;28;20037;-66
2023/03/13 03:13:18;;;;;;;9.40;4.85;;;9.40;99.90;;;;;;5052508;28;20049;-66
2023/03/13 03:15:44;;;;;;;11.85;5.28;;;9.40;99.90;;;;;;5052014;28;20036;-66
2023/03/13 03:18:09;;;;;;;8.93;4.30;;;9.40;99.90;;;;;;5052410;28;20490;-66
2023/03/13 03:20:35;;;;;;;11.27;4.38;;;9.50;99.90;;;;;;5053857;28;20076;-66
2023/03/13 03:23:01;;;;;;;13.18;5.57;;;9.50;99.90;;;;;;5051911;28;20406;-66
2023/03/13 03:25:27;;;;;;;9.30;4.70;;;9.50;99.90;;;;;;5052256;28;20052;-66
2023/03/13 03:27:52;;;;;;;8.57;4.93;;;9.50;99.90;;;;;;5053852;28;20116;-67
2023/03/13 03:30:19;;;;;;;9.48;5.57;;;9.50;99.90;;;;;;5053301;28;20383;-67
2023/03/13 03:32:44;;;;;;;9.85;5.97;;;9.60;99.90;;;;;;5052308;28;20103;-66
2023/03/13 03:35:10;;;;;;;11.18;6.13;;;9.60;99.90;;;;;;5052486;28;20044;-67
2023/03/13 03:37:36;;;;;;;12.02;5.57;;;9.60;99.90;;;;;;5051551;28;20390;-66
2023/03/13 03:40:04;;;;;;;9.20;5.22;;;9.60;99.90;;;;;;5052505;28;20047;-66
2023/03/13 03:42:30;;;;;;;10.98;6.05;;;9.70;99.90;;;;;;5052416;28;20107;-67
2023/03/13 03:44:56;;;;;;;10.43;6.18;;;9.70;99.90;;;;;;5052770;28;20033;-66
2023/03/13 03:47:21;;;;;;;13.20;6.65;;;9.70;99.90;;;;;;5051822;28;20528;-66
2023/03/13 03:49:47;;;;;;;8.43;5.22;;;9.70;99.90;;;;;;5052496;28;20087;-66
2023/03/13 03:52:13;;;;;;;13.10;7.57;;;9.80;99.90;;;;;;5053285;28;20072;-66
2023/03/13 03:54:39;;;;;;;13.93;7.50;;;9.80;99.90;;;;;;5051982;28;20045;-66
2023/03/13 03:57:04;;;;;;;14.18;7.57;;;9.80;99.90;;;;;;5052767;28;20186;-67
2023/03/13 03:59:30;;;;;;;11.27;7.38;;;9.80;99.90;;;;;;5053310;28;20044;-66
2023/03/13 04:01:56;;;;;;;14.60;8.15;;;9.90;99.90;;;;;;5051793;28;20041;-66
2023/03/13 04:04:22;;;;;;;15.18;8.77;;;9.90;99.90;;;;;;5051132;28;20041;-67
2023/03/13 04:06:48;;;;;;;17.48;10.07;;;9.90;99.90;;;;;;5051560;28;20048;-66
2023/03/13 04:09:13;;;;;;;18.67;9.85;;;10.00;99.90;;;;;;5051862;28;20045;-66
2023/03/13 04:11:39;;;;;;;14.55;9.05;;;10.00;99.90;;;;;;5051349;28;20543;-66
2023/03/13 04:14:05;;;;;;;18.90;9.50;;;10.10;99.90;;;;;;5052970;28;20063;-66
2023/03/13 04:16:31;;;;;;;17.13;10.30;;;10.20;99.90;;;;;;5050336;28;20077;-67
2023/03/13 04:18:57;;;;;;;23.23;11.70;;;10.20;99.90;;;;;;5051966;28;20044;-66
2023/03/13 04:21:22;;;;;;;21.33;11.40;;;10.30;99.90;;;;;;5052401;28;20043;-66
2023/03/13 04:23:48;;;;;;;21.65;12.75;;;10.30;99.90;;;;;;5051483;28;20124;-66
2023/03/13 04:26:14;;;;;;;18.42;11.40;;;10.40;99.90;;;;;;5051889;28;20057;-66
2023/03/13 04:28:39;;;;;;;22.48;12.38;;;10.40;99.90;;;;;;5051543;28;20052;-64
2023/03/13 04:31:05;;;;;;;22.02;13.13;;;10.50;99.90;;;;;;5052674;28;20041;-67
2023/03/13 04:33:31;;;;;;;24.17;12.73;;;10.60;99.90;;;;;;5051955;28;20079;-66
2023/03/13 04:35:57;;;;;;;22.63;12.32;;;10.60;99.90;;;;;;5051098;28;20048;-66
2023/03/13 04:38:22;;;;;;;25.23;14.50;;;10.70;99.90;;;;;;5051004;28;20482;-66
2023/03/13 04:40:48;;;;;;;20.73;12.50;;;10.70;99.90;;;;;;5051845;28;20041;-66
2023/03/13 04:43:14;;;;;;;21.45;13.23;;;10.80;99.90;;;;;;5051068;28;20041;-66
2023/03/13 04:45:40;;;;;;;22.75;13.00;;;10.80;99.90;;;;;;5052287;28;20041;-66
2023/03/13 04:48:05;;;;;;;24.55;12.60;;;10.80;99.90;;;;;;5051645;28;20052;-66
2023/03/13 04:50:31;;;;;;;17.00;11.20;;;10.90;99.90;;;;;;5051858;28;20528;-66
2023/03/13 04:52:57;;;;;;;16.25;11.10;;;10.90;99.90;;;;;;5050082;28;20175;-66
2023/03/13 04:55:23;;;;;;;21.08;10.95;;;10.90;99.90;;;;;;5052206;28;20048;-66
2023/03/13 04:57:49;;;;;;;23.70;11.30;;;10.90;99.90;;;;;;5052228;28;20127;-66
2023/03/13 05:00:15;;;;;;;20.05;10.60;;;11.00;99.90;;;;;;5050174;28;20502;-66
2023/03/13 05:02:40;;;;;;;20.88;9.77;;;11.00;99.90;;;;;;5052074;28;20029;-66
2023/03/13 05:05:06;;;;;;;15.32;9.35;;;11.00;99.90;;;;;;5050770;28;20466;-66
2023/03/13 05:07:32;;;;;;;17.55;9.73;;;11.00;99.90;;;;;;5051550;28;20437;-66
2023/03/13 05:09:58;;;;;;;16.75;9.10;;;11.00;99.90;;;;;;5051960;28;20099;-67
2023/03/13 05:12:24;;;;;;;16.55;8.88;;;11.00;99.90;;;;;;5051883;28;20040;-67
2023/03/13 05:14:51;;;;;;;14.48;7.97;;;11.00;99.90;;;;;;5051166;28;20044;-66
2023/03/13 05:17:17;;;;;;;16.13;7.60;;;11.10;99.90;;;;;;5050313;28;20053;-66
2023/03/13 05:19:42;;;;;;;13.02;7.28;;;11.10;99.90;;;;;;5050278;28;20048;-66
2023/03/13 05:22:08;;;;;;;16.63;7.35;;;11.10;99.90;;;;;;5049458;28;20120;-65
2023/03/13 05:24:34;;;;;;;15.18;7.68;;;11.10;99.90;;;;;;5050057;28;20048;-65
2023/03/13 05:27:01;;;;;;;17.92;7.18;;;11.10;99.90;;;;;;5051421;28;20525;-67
2023/03/13 05:29:27;;;;;;;10.48;6.15;;;11.20;99.90;;;;;;5050985;28;20051;-66
2023/03/13 05:31:52;;;;;;;14.63;6.80;;;11.20;99.90;;;;;;5050167;28;20044;-66
2023/03/13 05:34:18;;;;;;;13.68;5.55;;;11.20;99.90;;;;;;5049974;28;20040;-67
2023/03/13 05:36:44;;;;;;;12.57;6.22;;;11.20;99.90;;;;;;5050622;28;20044;-67
2023/03/13 05:39:10;;;;;;;13.75;5.65;;;11.20;99.90;;;;;;5049936;28;20083;-67
2023/03/13 05:41:36;;;;;;;10.85;4.78;;;11.20;99.90;;;;;;5051329;28;20033;-66
2023/03/13 05:44:01;;;;;;;12.75;5.47;;;11.20;99.90;;;;;;5049241;28;20186;-67
2023/03/13 05:46:27;;;;;;;10.95;5.55;;;11.20;99.90;;;;;;5049794;28;20044;-66
2023/03/13 05:48:53;;;;;;;14.82;6.03;;;11.20;99.90;;;;;;5049432;28;20056;-66
2023/03/13 05:51:19;;;;;;;10.60;6.00;;;11.20;99.90;;;;;;5066578;28;20489;-66
2023/03/13 05:53:44;;;;;;;14.80;6.95;;;11.20;99.90;;;;;;5066175;28;20103;-66
2023/03/13 05:56:10;;;;;;;12.68;5.93;;;11.20;99.90;;;;;;5049100;28;20041;-66
2023/03/13 05:58:36;;;;;;;17.33;7.45;;;11.30;99.90;;;;;;5050881;28;20029;-66
2023/03/13 06:01:10;;;;;;;11.80;6.85;;;11.30;99.90;;;;;;5051041;28;20028;-66
2023/03/13 06:03:36;;;;;;;15.30;8.57;;;11.30;99.90;;;;;;5049164;28;20137;-65
2023/03/13 06:06:01;;;;;;;14.27;7.50;;;11.30;99.90;;;;;;5051006;28;20107;-66
2023/03/13 06:08:27;;;;;;;13.57;7.68;;;11.40;99.90;;;;;;5049523;28;20126;-66
2023/03/13 06:10:53;;;;;;;10.50;7.00;;;11.40;99.90;;;;;;5050269;28;20370;-66
2023/03/13 06:13:19;;;;;;;15.02;6.82;;;11.50;99.90;;;;;;5049480;28;20071;-65
2023/03/13 06:15:56;;;;;;;14.23;6.72;;;11.50;99.90;;;;;;5049237;28;20044;-66
2023/03/13 06:18:23;;;;;;;18.25;6.57;;;11.50;99.90;;;;;;5048579;28;20508;-66
2023/03/13 06:20:54;;;;;;;16.20;8.05;;;11.50;99.90;;;;;;5050547;28;20052;-66
2023/03/13 06:23:20;;;;;;;15.75;6.78;;;11.50;99.90;;;;;;5050497;28;20041;-66
2023/03/13 06:25:47;;;;;;;11.07;6.10;;;11.50;99.90;;;;;;5048396;28;20052;-66
2023/03/13 06:28:13;;;;;;;13.63;6.72;;;11.50;99.90;;;;;;5049176;28;20048;-66
2023/03/13 06:30:39;;;;;;;16.02;6.28;;;11.50;99.90;;;;;;5050355;28;20451;-66
2023/03/13 06:33:05;;;;;;;10.82;6.05;;;11.50;99.90;;;;;;5048915;28;20048;-66
2023/03/13 06:35:31;;;;;;;15.93;6.80;;;11.50;99.90;;;;;;5050425;28;20128;-66
2023/03/13 06:37:56;;;;;;;16.00;7.07;;;11.60;99.90;;;;;;5048196;28;20068;-66
2023/03/13 06:40:22;;;;;;;11.48;5.38;;;11.60;99.90;;;;;;5050214;28;20494;-66
2023/03/13 06:42:48;;;;;;;19.63;5.95;;;11.60;99.90;;;;;;5049203;28;20383;-66
2023/03/13 06:45:14;;;;;;;21.92;5.88;;;11.60;99.90;;;;;;5049938;28;20090;-65
2023/03/13 06:47:39;;;;;;;14.45;4.80;;;11.60;99.90;;;;;;5082776;28;20416;-66
2023/03/13 06:50:06;;;;;;;13.60;6.75;;;11.60;99.90;;;;;;5050347;28;20041;-66
2023/03/13 06:52:31;;;;;;;19.02;6.03;;;11.60;99.90;;;;;;5048508;28;20045;-66
2023/03/13 06:54:57;;;;;;;12.20;5.20;;;11.60;99.90;;;;;;5049278;28;20447;-66
2023/03/13 06:57:23;;;;;;;13.88;5.30;;;11.60;99.90;;;;;;5048492;28;20139;-66
2023/03/13 06:59:48;;;;;;;15.15;4.95;;;11.60;99.90;;;;;;5049496;28;20045;-66
2023/03/13 07:02:15;;;;;;;15.68;5.55;;;11.60;99.90;;;;;;5050049;28;20068;-66
2023/03/13 07:04:40;;;;;;;11.18;4.95;;;11.60;99.90;;;;;;5050085;28;20043;-66
2023/03/13 07:07:06;;;;;;;14.30;4.53;;;11.50;99.90;;;;;;5048289;28;20123;-66
2023/03/13 07:09:32;;;;;;;11.70;4.15;;;11.60;99.90;;;;;;5050141;28;20048;-66
2023/03/13 07:11:58;;;;;;;12.13;4.78;;;11.60;99.90;;;;;;5048703;28;20098;-66
2023/03/13 07:14:24;;;;;;;11.73;3.90;;;11.60;99.90;;;;;;5048408;28;20041;-66
2023/03/13 07:16:50;;;;;;;11.65;4.70;;;11.60;99.90;;;;;;5048519;28;20516;-66
2023/03/13 07:19:16;;;;;;;6.68;3.65;;;11.60;99.90;;;;;;5049989;28;20087;-66
2023/03/13 07:21:43;;;;;;;17.23;4.68;;;11.60;99.90;;;;;;5049356;28;20105;-66
2023/03/13 07:24:09;;;;;;;12.13;4.80;;;11.60;99.90;;;;;;5049965;28;20073;-66
2023/03/13 07:26:34;;;;;;;10.55;4.30;;;11.60;99.90;;;;;;5048388;28;20533;-66
2023/03/13 07:29:00;;;;;;;9.82;4.03;;;11.60;99.90;;;;;;5048145;28;20045;-67
2023/03/13 07:31:28;;;;;;;14.27;4.20;;;11.60;99.90;;;;;;5049545;28;20036;-67
2023/03/13 07:33:57;;;;;;;9.00;3.65;;;11.60;99.90;;;;;;5048888;28;20051;-67
2023/03/13 07:36:23;;;;;;;11.25;4.97;;;11.60;99.90;;;;;;5049550;28;20037;-65
2023/03/13 07:38:50;;;;;;;15.40;5.22;;;11.60;99.90;;;;;;5048513;28;20041;-67
2023/03/13 07:41:17;;;;;;;8.93;4.00;;;11.60;99.90;;;;;;5049265;28;20041;-66
2023/03/13 07:43:43;;;;;;;8.23;3.42;;;11.50;99.90;;;;;;5050001;28;20040;-67
2023/03/13 07:46:12;;;;;;;11.80;3.90;;;11.50;99.90;;;;;;5048444;28;20102;-66
2023/03/13 07:48:40;;;;;;;12.17;3.93;;;11.50;99.90;;;;;;5047762;28;20087;-66
2023/03/13 07:51:10;;;;;;;10.85;4.00;;;11.50;99.90;;;;;;5052674;28;20436;-66
2023/03/13 07:53:35;;;;;;;7.72;3.45;;;11.50;99.90;;;;;;5051964;28;20040;-67
2023/03/13 07:56:04;;;;;;;11.48;3.50;;;11.50;99.90;;;;;;5051392;28;20047;-67
2023/03/13 07:58:36;;;;;;;12.95;4.20;;;11.50;99.90;;;;;;5051572;28;20583;-66
2023/03/13 08:01:08;;;;;;;7.05;3.60;;;11.50;99.90;;;;;;5051904;28;20033;-66
2023/03/13 08:03:35;;;;;;;8.45;3.25;;;11.50;99.90;;;;;;5050966;28;20041;-66
2023/03/13 08:06:06;;;;;;;7.63;3.03;;;11.50;99.90;;;;;;5051438;28;20047;-67
2023/03/13 08:08:32;;;;;;;6.35;3.10;;;11.60;99.90;;;;;;5052961;28;20044;-66
2023/03/13 08:11:04;;;;;;;10.57;3.38;;;11.60;99.90;;;;;;5034825;28;20044;-66
2023/03/13 08:13:31;;;;;;;8.95;3.08;;;11.60;99.90;;;;;;5052008;28;20083;-66
2023/03/13 08:16:10;;;;;;;11.38;2.78;;;11.70;99.90;;;;;;5051000;28;20041;-66
2023/03/13 08:18:39;;;;;;;9.10;2.80;;;11.80;99.90;;;;;;5034858;28;20041;-66
2023/03/13 08:21:07;;;;;;;7.35;2.50;;;11.90;99.90;;;;;;5051692;28;20029;-65
2023/03/13 08:23:33;;;;;;;6.60;2.25;;;12.00;99.90;;;;;;5050827;28;20045;-66
2023/03/13 08:26:08;;;;;;;6.13;1.95;;;12.10;99.90;;;;;;5051216;28;20057;-65
2023/03/13 08:28:35;;;;;;;5.50;1.60;;;12.20;99.90;;;;;;5051354;28;20060;-66
2023/03/13 08:31:25;;;;;;;6.15;1.80;;;12.30;99.90;;;;;;5051906;28;20381;-66
2023/03/13 08:33:51;;;;;;;6.93;1.77;;;12.40;99.90;;;;;;5052574;28;20048;-66
2023/03/13 08:36:21;;;;;;;9.00;2.40;;;12.40;99.90;;;;;;5052388;28;20040;-65
2023/03/13 08:38:48;;;;;;;4.43;1.27;;;12.50;99.90;;;;;;5050296;28;20512;-66
2023/03/13 08:41:17;;;;;;;5.45;1.52;;;12.80;99.90;;;;;;5052199;28;20393;-66
2023/03/13 08:43:43;;;;;;;6.35;1.65;;;13.40;99.90;;;;;;5034030;28;20043;-66
2023/03/13 08:46:09;;;;;;;5.63;1.70;;;13.90;99.90;;;;;;5052611;28;20029;-66
2023/03/13 08:48:35;;;;;;;5.97;1.83;;;14.40;99.90;;;;;;5050941;28;20401;-67
2023/03/13 08:51:05;;;;;;;4.95;1.58;;;14.50;99.90;;;;;;5050454;28;20047;-66
2023/03/13 08:53:33;;;;;;;6.28;1.95;;;14.20;99.90;;;;;;5052217;28;20393;-66
2023/03/13 08:55:59;;;;;;;6.70;2.20;;;13.80;99.90;;;;;;5050789;28;20466;-66
2023/03/13 08:58:25;;;;;;;8.85;2.25;;;13.40;99.90;;;;;;5050167;28;20397;-65
2023/03/13 09:00:51;;;;;;;7.95;2.08;;;13.20;99.90;;;;;;5050549;28;20037;-66
2023/03/13 09:03:17;;;;;;;6.65;2.45;;;13.00;99.90;;;;;;5050119;28;20033;-66
2023/03/13 09:05:45;;;;;;;14.38;2.53;;;12.90;99.90;;;;;;5050036;28;20036;-66
2023/03/13 09:08:11;;;;;;;12.63;2.60;;;12.80;99.90;;;;;;5051701;28;20048;-66
2023/03/13 09:10:37;;;;;;;9.98;2.65;;;12.80;99.90;;;;;;5050538;28;20118;-66
2023/03/13 09:13:03;;;;;;;13.93;2.65;;;12.80;99.90;;;;;;5050792;28;20507;-66
2023/03/13 09:15:29;;;;;;;10.30;3.20;;;12.70;99.90;;;;;;5050505;28;20041;-66
2023/03/13 09:17:54;;;;;;;8.90;2.55;;;12.60;99.90;;;;;;5050413;28;20041;-66
2023/03/13 09:20:20;;;;;;;13.40;3.55;;;12.60;99.90;;;;;;5051129;28;20065;-66
2023/03/13 09:22:46;;;;;;;9.98;2.42;;;12.40;99.90;;;;;;5050511;28;20040;-66
2023/03/13 09:25:13;;;;;;;11.32;2.80;;;12.40;99.90;;;;;;5050024;28;20448;-66
2023/03/13 09:27:39;;;;;;;10.98;2.90;;;12.30;99.90;;;;;;5033009;28;20049;-66
2023/03/13 09:30:06;;;;;;;7.75;2.53;;;12.40;99.90;;;;;;5051556;28;20574;-66
2023/03/13 09:32:32;;;;;;;7.40;2.55;;;12.30;99.90;;;;;;5050035;28;20080;-66
2023/03/13 09:34:58;;;;;;;7.05;2.92;;;12.40;99.90;;;;;;5050752;28;20049;-67
2023/03/13 09:37:24;;;;;;;6.70;2.42;;;12.50;99.90;;;;;;5051309;28;20045;-66
2023/03/13 09:39:50;;;;;;;10.10;2.60;;;12.70;99.90;;;;;;5049521;28;20043;-66
2023/03/13 09:42:44;;;;;;;11.23;3.45;;;12.80;99.90;;;;;;5049689;28;20036;-66
2023/03/13 09:45:35;;;;;;;8.70;2.58;;;13.10;99.90;;;;;;5051018;28;20037;-67
2023/03/13 09:48:22;;;;;;;8.13;1.95;;;13.80;99.90;;;;;;5050431;28;20094;-67
2023/03/13 09:51:03;;;;;;;9.43;2.80;;;14.80;99.90;;;;;;5051488;28;20047;-67
2023/03/13 09:53:51;;;;;;;8.40;2.38;;;15.60;99.90;;;;;;5050021;28;20080;-66
2023/03/13 09:56:21;;;;;;;8.95;2.75;;;16.40;99.90;;;;;;5049981;28;20052;-66
2023/03/13 09:58:56;;;;;;;9.43;3.17;;;16.60;99.90;;;;;;5050938;28;20045;-67
2023/03/13 10:01:33;;;;;;;13.57;2.92;;;17.00;99.90;;;;;;5049138;28;20424;-66
2023/03/13 10:04:17;;;;;;;14.23;3.28;;;17.30;99.90;;;;;;5049581;28;20044;-68
2023/03/13 10:06:44;;;;;;;11.43;2.38;;;17.50;99.90;;;;;;5049519;28;20091;-67
2023/03/13 10:09:31;;;;;;;10.43;3.20;;;17.40;99.90;;;;;;5050079;28;20170;-67
2023/03/13 10:12:05;;;;;;;15.15;3.13;;;17.10;99.90;;;;;;5050951;28;20451;-66
2023/03/13 10:15:20;;;;;;;9.13;2.42;;;16.90;99.90;;;;;;5049674;28;20048;-67
2023/03/13 10:17:46;;;;;;;11.93;2.22;;;16.90;99.90;;;;;;5040631;28;20106;-67
2023/03/13 10:20:32;;;;;;;11.73;3.08;;;16.50;99.90;;;;;;5050444;28;20037;-66
2023/03/13 10:23:03;;;;;;;15.95;3.70;;;16.30;99.90;;;;;;5049102;28;20102;-67
2023/03/13 10:25:33;;;;;;;11.00;2.95;;;16.30;99.90;;;;;;5050535;28;20468;-66
2023/03/13 10:27:59;;;;;;;11.52;3.08;;;16.20;99.90;;;;;;5050478;28;20091;-67
2023/03/13 10:30:31;;;;;;;15.02;4.18;;;16.00;99.90;;;;;;5048578;28;20119;-67
2023/03/13 10:33:06;;;;;;;14.32;2.90;;;16.20;99.90;;;;;;5050562;28;20045;-67
2023/03/13 10:35:38;;;;;;;14.32;3.05;;;16.30;99.90;;;;;;5032432;28;20406;-67
2023/03/13 10:38:09;;;;;;;11.75;2.75;;;16.50;99.90;;;;;;5048570;28;20037;-68
2023/03/13 10:40:35;;;;;;;15.10;2.95;;;16.90;99.90;;;;;;5050275;28;20461;-67
2023/03/13 10:43:16;;;;;;;9.75;2.78;;;17.00;99.90;;;;;;5049618;28;20044;-66
2023/03/13 10:45:41;;;;;;;13.82;3.00;;;16.70;99.90;;;;;;5049284;28;20056;-67
2023/03/13 10:48:13;;;;;;;9.85;2.88;;;16.50;99.90;;;;;;5049010;28;20497;-67
2023/03/13 10:50:45;;;;;;;15.15;2.78;;;16.30;99.90;;;;;;5048300;28;20076;-68
2023/03/13 10:53:29;;;;;;;11.68;3.30;;;16.30;99.90;;;;;;5050248;28;20056;-67
2023/03/13 10:56:18;;;;;;;8.75;2.47;;;16.30;99.90;;;;;;5048972;28;20049;-66
2023/03/13 10:58:52;;;;;;;9.10;2.57;;;16.10;99.90;;;;;;5048167;28;20084;-68
2023/03/13 11:01:25;;;;;;;8.30;2.60;;;16.20;99.90;;;;;;5049022;28;20660;-68
2023/03/13 11:03:54;;;;;;;7.28;1.85;;;16.10;99.90;;;;;;5047726;28;20432;-67
2023/03/13 11:06:36;;;;;;;9.82;2.80;;;16.10;99.90;;;;;;5049269;28;20493;-69
2023/03/13 11:09:15;;;;;;;10.52;2.45;;;15.90;99.90;;;;;;5048625;28;20045;-68
2023/03/13 11:11:45;;;;;;;12.43;2.80;;;15.70;99.90;;;;;;5047561;28;20036;-69
2023/03/13 11:14:20;;;;;;;11.88;2.38;;;15.40;99.90;;;;;;5046300;28;20819;-69
2023/03/13 11:16:50;;;;;;;5.97;1.75;;;15.20;99.90;;;;;;5046281;28;20132;-67
2023/03/13 11:19:25;;;;;;;12.02;2.25;;;15.30;99.90;;;;;;5047194;28;20037;-68
2023/03/13 11:21:57;;;;;;;7.80;2.35;;;15.90;99.90;;;;;;5048871;28;20090;-68
2023/03/13 11:24:26;;;;;;;6.53;1.95;;;16.80;99.90;;;;;;5047650;28;20055;-68
2023/03/13 11:27:25;;;;;;;6.88;1.88;;;16.90;99.90;;;;;;5052332;28;20128;-67
2023/03/13 11:30:06;;;;;;;6.78;1.30;;;16.50;99.90;;;;;;5051653;28;20048;-69
2023/03/13 11:32:42;;;;;;;5.88;1.65;;;16.50;99.90;;;;;;5050751;28;20132;-68
2023/03/13 11:35:42;;;;;;;7.30;1.90;;;17.00;99.90;;;;;;5051204;28;20041;-68
2023/03/13 11:38:22;;;;;;;7.40;1.45;;;17.10;99.90;;;;;;4990487;28;20081;-68
2023/03/13 11:41:09;;;;;;;6.88;1.50;;;17.10;99.90;;;;;;4990071;28;20392;-67
2023/03/13 11:43:49;;;;;;;12.35;2.63;;;17.40;99.90;;;;;;4990352;28;20391;-69
2023/03/13 11:46:23;;;;;;;5.45;2.08;;;17.10;99.90;;;;;;4990109;28;20545;-67
2023/03/13 11:48:55;;;;;;;11.98;2.70;;;16.90;99.90;;;;;;4974353;28;20046;-67
2023/03/13 11:51:30;;;;;;;9.23;2.28;;;16.70;99.90;;;;;;4958260;28;20446;-66
2023/03/13 11:54:37;;;;;;;6.05;1.77;;;16.60;99.90;;;;;;4989812;28;20050;-68
2023/03/13 11:57:29;;;;;;;10.40;2.10;;;17.00;99.90;;;;;;4932436;29;20122;-67
2023/03/13 12:00:32;;;;;;;8.45;2.33;;;16.90;99.90;;;;;;4932177;29;20516;-67
2023/03/13 12:03:29;;;;;;;11.65;3.13;;;16.70;99.90;;;;;;4931498;29;20462;-66
2023/03/13 12:05:58;;;;;;;9.15;2.90;;;16.70;99.90;;;;;;4930858;29;20151;-68
2023/03/13 12:08:40;;;;;;;11.38;2.65;;;16.80;99.90;;;;;;4931021;29;20059;-66
2023/03/13 12:11:42;;;;;;;10.23;2.65;;;16.90;99.90;;;;;;4931632;29;20079;-69
2023/03/13 12:14:32;;;;;;;14.07;2.80;;;17.00;99.90;;;;;;4902691;29;20562;-67
2023/03/13 12:17:02;;;;;;;12.43;3.47;;;16.70;99.90;;;;;;4934825;29;20050;-67
2023/03/13 12:19:57;;;;;;;13.73;3.17;;;16.60;99.90;;;;;;4951184;29;20841;-68
2023/03/13 12:22:41;;;;;;;18.13;3.75;;;17.00;99.90;;;;;;4950540;29;20050;-67
2023/03/13 12:25:22;;;;;;;14.00;4.10;;;17.20;99.90;;;;;;4951544;29;20109;-68
2023/03/13 12:27:55;;;;;;;13.65;3.25;;;17.60;99.90;;;;;;4935487;29;20411;-68
2023/03/13 12:30:44;;;;;;;13.50;3.75;;;17.80;99.90;;;;;;4976652;28;20057;-68
2023/03/13 12:33:35;;;;;;;16.80;4.05;;;17.50;99.90;;;;;;5052499;28;20041;-67
2023/03/13 12:36:20;;;;;;;16.80;4.57;;;17.00;99.90;;;;;;5040539;28;20123;-68
2023/03/13 12:38:52;;;;;;;14.25;3.88;;;16.90;99.90;;;;;;5051347;28;20051;-67
2023/03/13 12:41:24;;;;;;;12.60;3.53;;;17.20;99.90;;;;;;5052060;28;20045;-66
2023/03/13 12:43:52;;;;;;;14.32;4.00;;;17.30;99.90;;;;;;5051893;28;20386;-67
2023/03/13 12:46:42;;;;;;;18.08;4.88;;;17.40;99.90;;;;;;5050656;28;20036;-67
2023/03/13 12:49:29;;;;;;;16.58;3.65;;;17.60;99.90;;;;;;5051484;28;20045;-66
2023/03/13 12:52:17;;;;;;;15.50;4.47;;;17.70;99.90;;;;;;5050825;28;20068;-68
2023/03/13 12:54:57;;;;;;;17.73;4.22;;;17.40;99.90;;;;;;5050809;28;20045;-67
2023/03/13 12:57:42;;;;;;;14.75;3.70;;;17.00;99.90;;;;;;5051080;28;20497;-67
2023/03/13 13:00:33;;;;;;;18.30;4.68;;;16.70;99.90;;;;;;5050355;28;20049;-69